sensor_id;sensor_type;location;lat;lon;timestamp;P1;durP1;ratioP1;P2;durP2;ratioP2
12212;SDS011;6169;44.158;22.788;2023-05-21T00:03:58;9.32;;;7.75;;
12212;SDS011;6169;44.158;22.788;2023-05-21T00:09:02;12.68;;;8.82;;
12212;SDS011;6169;44.158;22.788;2023-05-21T00:14:05;12.60;;;8.90;;
12212;SDS011;6169;44.158;22.788;2023-05-21T00:19:07;12.07;;;9.48;;
12212;SDS011;6169;44.158;22.788;2023-05-21T00:24:11;12.90;;;9.80;;
12212;SDS011;6169;44.158;22.788;2023-05-21T00:29:13;14.90;;;10.63;;
12212;SDS011;6169;44.158;22.788;2023-05-21T00:34:15;16.08;;;9.45;;
12212;SDS011;6169;44.158;22.788;2023-05-21T00:39:19;15.07;;;9.88;;
12212;SDS011;6169;44.158;22.788;2023-05-21T00:44:21;17.42;;;11.02;;
12212;SDS011;6169;44.158;22.788;2023-05-21T00:49:24;13.27;;;9.52;;
12212;SDS011;6169;44.158;22.788;2023-05-21T00:54:28;16.08;;;9.65;;
12212;SDS011;6169;44.158;22.788;2023-05-21T00:59:31;12.85;;;8.95;;
12212;SDS011;6169;44.158;22.788;2023-05-21T01:04:33;11.98;;;9.68;;
12212;SDS011;6169;44.158;22.788;2023-05-21T01:09:38;10.48;;;9.07;;
12212;SDS011;6169;44.158;22.788;2023-05-21T01:14:40;15.90;;;10.05;;
12212;SDS011;6169;44.158;22.788;2023-05-21T01:19:43;10.45;;;8.55;;
12212;SDS011;6169;44.158;22.788;2023-05-21T01:24:48;14.27;;;10.13;;
12212;SDS011;6169;44.158;22.788;2023-05-21T01:29:50;11.15;;;8.77;;
12212;SDS011;6169;44.158;22.788;2023-05-21T01:34:55;12.93;;;8.88;;
12212;SDS011;6169;44.158;22.788;2023-05-21T01:40:04;11.30;;;9.48;;
12212;SDS011;6169;44.158;22.788;2023-05-21T01:45:12;13.95;;;8.77;;
12212;SDS011;6169;44.158;22.788;2023-05-21T01:50:16;13.80;;;8.55;;
12212;SDS011;6169;44.158;22.788;2023-05-21T01:55:21;11.60;;;8.52;;
12212;SDS011;6169;44.158;22.788;2023-05-21T02:00:25;14.25;;;10.50;;
12212;SDS011;6169;44.158;22.788;2023-05-21T02:05:28;19.85;;;10.70;;
12212;SDS011;6169;44.158;22.788;2023-05-21T02:10:32;19.40;;;9.77;;
12212;SDS011;6169;44.158;22.788;2023-05-21T02:15:34;15.25;;;9.63;;
12212;SDS011;6169;44.158;22.788;2023-05-21T02:20:38;17.13;;;11.35;;
12212;SDS011;6169;44.158;22.788;2023-05-21T02:25:41;13.50;;;10.45;;
12212;SDS011;6169;44.158;22.788;2023-05-21T02:30:44;13.23;;;10.60;;
12212;SDS011;6169;44.158;22.788;2023-05-21T02:35:46;15.45;;;10.90;;
12212;SDS011;6169;44.158;22.788;2023-05-21T02:40:49;19.08;;;10.32;;
12212;SDS011;6169;44.158;22.788;2023-05-21T02:45:52;15.98;;;10.27;;
12212;SDS011;6169;44.158;22.788;2023-05-21T02:50:54;13.90;;;8.93;;
12212;SDS011;6169;44.158;22.788;2023-05-21T02:55:57;11.82;;;9.13;;
12212;SDS011;6169;44.158;22.788;2023-05-21T03:01:00;18.50;;;9.65;;
12212;SDS011;6169;44.158;22.788;2023-05-21T03:06:02;10.23;;;7.85;;
12212;SDS011;6169;44.158;22.788;2023-05-21T03:11:06;16.23;;;9.40;;
12212;SDS011;6169;44.158;22.788;2023-05-21T03:16:08;12.90;;;9.10;;
12212;SDS011;6169;44.158;22.788;2023-05-21T03:21:10;12.07;;;8.52;;
12212;SDS011;6169;44.158;22.788;2023-05-21T03:26:16;14.00;;;8.20;;
12212;SDS011;6169;44.158;22.788;2023-05-21T03:31:18;9.45;;;7.72;;
12212;SDS011;6169;44.158;22.788;2023-05-21T03:36:20;10.13;;;8.70;;
12212;SDS011;6169;44.158;22.788;2023-05-21T03:41:24;11.15;;;8.38;;
12212;SDS011;6169;44.158;22.788;2023-05-21T03:46:26;13.60;;;9.68;;
12212;SDS011;6169;44.158;22.788;2023-05-21T03:51:28;16.25;;;10.00;;
12212;SDS011;6169;44.158;22.788;2023-05-21T03:56:32;14.38;;;11.75;;
12212;SDS011;6169;44.158;22.788;2023-05-21T04:01:34;18.52;;;13.10;;
12212;SDS011;6169;44.158;22.788;2023-05-21T04:06:38;19.75;;;14.07;;
12212;SDS011;6169;44.158;22.788;2023-05-21T04:11:42;23.85;;;15.00;;
12212;SDS011;6169;44.158;22.788;2023-05-21T04:16:46;14.05;;;9.60;;
12212;SDS011;6169;44.158;22.788;2023-05-21T04:21:48;11.00;;;9.38;;
12212;SDS011;6169;44.158;22.788;2023-05-21T04:26:51;13.45;;;8.93;;
12212;SDS011;6169;44.158;22.788;2023-05-21T04:31:55;12.05;;;8.82;;
12212;SDS011;6169;44.158;22.788;2023-05-21T04:36:57;10.43;;;8.55;;
12212;SDS011;6169;44.158;22.788;2023-05-21T04:42:01;13.55;;;8.85;;
12212;SDS011;6169;44.158;22.788;2023-05-21T04:47:03;11.38;;;8.43;;
12212;SDS011;6169;44.158;22.788;2023-05-21T04:52:05;15.40;;;9.38;;
12212;SDS011;6169;44.158;22.788;2023-05-21T04:57:09;11.02;;;8.73;;
12212;SDS011;6169;44.158;22.788;2023-05-21T05:02:11;11.52;;;8.90;;
12212;SDS011;6169;44.158;22.788;2023-05-21T05:07:14;11.95;;;9.65;;
12212;SDS011;6169;44.158;22.788;2023-05-21T05:12:17;11.43;;;9.25;;
12212;SDS011;6169;44.158;22.788;2023-05-21T05:17:20;11.13;;;9.40;;
12212;SDS011;6169;44.158;22.788;2023-05-21T05:22:23;16.02;;;8.38;;
12212;SDS011;6169;44.158;22.788;2023-05-21T05:27:27;11.75;;;8.77;;
12212;SDS011;6169;44.158;22.788;2023-05-21T05:32:29;12.68;;;9.32;;
12212;SDS011;6169;44.158;22.788;2023-05-21T05:37:31;14.73;;;8.68;;
12212;SDS011;6169;44.158;22.788;2023-05-21T05:42:35;13.27;;;8.48;;
12212;SDS011;6169;44.158;22.788;2023-05-21T05:47:37;13.50;;;8.80;;
12212;SDS011;6169;44.158;22.788;2023-05-21T05:52:39;13.48;;;9.95;;
12212;SDS011;6169;44.158;22.788;2023-05-21T05:57:43;11.85;;;8.48;;
12212;SDS011;6169;44.158;22.788;2023-05-21T06:02:45;13.32;;;8.73;;
12212;SDS011;6169;44.158;22.788;2023-05-21T06:07:48;16.80;;;9.05;;
12212;SDS011;6169;44.158;22.788;2023-05-21T06:12:52;14.15;;;9.57;;
12212;SDS011;6169;44.158;22.788;2023-05-21T06:17:54;11.23;;;8.05;;
12212;SDS011;6169;44.158;22.788;2023-05-21T06:22:56;33.53;;;21.55;;
12212;SDS011;6169;44.158;22.788;2023-05-21T06:28:00;18.50;;;14.23;;
12212;SDS011;6169;44.158;22.788;2023-05-21T06:33:02;25.83;;;17.02;;
12212;SDS011;6169;44.158;22.788;2023-05-21T06:38:04;21.65;;;10.45;;
12212;SDS011;6169;44.158;22.788;2023-05-21T06:43:08;23.35;;;12.10;;
12212;SDS011;6169;44.158;22.788;2023-05-21T06:48:10;13.55;;;9.32;;
12212;SDS011;6169;44.158;22.788;2023-05-21T06:53:12;10.15;;;8.07;;
12212;SDS011;6169;44.158;22.788;2023-05-21T06:58:17;8.10;;;7.28;;
12212;SDS011;6169;44.158;22.788;2023-05-21T07:03:19;10.13;;;7.68;;
12212;SDS011;6169;44.158;22.788;2023-05-21T07:08:21;11.95;;;7.80;;
12212;SDS011;6169;44.158;22.788;2023-05-21T07:13:25;11.07;;;6.60;;
12212;SDS011;6169;44.158;22.788;2023-05-21T07:18:27;11.75;;;6.68;;
12212;SDS011;6169;44.158;22.788;2023-05-21T07:23:29;8.90;;;8.00;;
12212;SDS011;6169;44.158;22.788;2023-05-21T07:28:33;8.55;;;7.32;;
12212;SDS011;6169;44.158;22.788;2023-05-21T07:33:35;10.02;;;6.90;;
12212;SDS011;6169;44.158;22.788;2023-05-21T07:38:37;11.25;;;7.07;;
12212;SDS011;6169;44.158;22.788;2023-05-21T07:43:42;11.50;;;6.53;;
12212;SDS011;6169;44.158;22.788;2023-05-21T07:48:44;11.23;;;6.85;;
12212;SDS011;6169;44.158;22.788;2023-05-21T07:53:47;14.02;;;6.57;;
12212;SDS011;6169;44.158;22.788;2023-05-21T07:58:51;12.55;;;5.65;;
12212;SDS011;6169;44.158;22.788;2023-05-21T08:03:53;9.80;;;6.45;;
12212;SDS011;6169;44.158;22.788;2023-05-21T08:08:55;10.15;;;5.80;;
12212;SDS011;6169;44.158;22.788;2023-05-21T08:13:59;7.40;;;5.38;;
12212;SDS011;6169;44.158;22.788;2023-05-21T08:19:01;9.90;;;6.07;;
12212;SDS011;6169;44.158;22.788;2023-05-21T08:24:05;11.20;;;5.72;;
12212;SDS011;6169;44.158;22.788;2023-05-21T08:29:09;11.40;;;5.80;;
12212;SDS011;6169;44.158;22.788;2023-05-21T08:34:11;12.07;;;5.50;;
12212;SDS011;6169;44.158;22.788;2023-05-21T08:39:13;12.30;;;5.43;;
12212;SDS011;6169;44.158;22.788;2023-05-21T08:44:18;9.02;;;5.43;;
12212;SDS011;6169;44.158;22.788;2023-05-21T08:49:22;7.05;;;5.28;;
12212;SDS011;6169;44.158;22.788;2023-05-21T08:54:27;8.80;;;5.63;;
12212;SDS011;6169;44.158;22.788;2023-05-21T08:59:31;8.90;;;5.60;;
12212;SDS011;6169;44.158;22.788;2023-05-21T09:04:36;9.82;;;5.20;;
12212;SDS011;6169;44.158;22.788;2023-05-21T09:09:40;7.68;;;5.22;;
12212;SDS011;6169;44.158;22.788;2023-05-21T09:14:48;8.50;;;4.90;;
12212;SDS011;6169;44.158;22.788;2023-05-21T09:20:10;6.50;;;5.25;;
12212;SDS011;6169;44.158;22.788;2023-05-21T09:25:14;7.65;;;4.53;;
12212;SDS011;6169;44.158;22.788;2023-05-21T09:30:18;14.95;;;9.02;;
12212;SDS011;6169;44.158;22.788;2023-05-21T09:35:21;11.60;;;5.07;;
12212;SDS011;6169;44.158;22.788;2023-05-21T09:40:23;11.07;;;5.75;;
12212;SDS011;6169;44.158;22.788;2023-05-21T09:45:27;8.35;;;7.22;;
12212;SDS011;6169;44.158;22.788;2023-05-21T09:50:29;6.35;;;5.13;;
12212;SDS011;6169;44.158;22.788;2023-05-21T09:55:31;7.28;;;5.97;;
12212;SDS011;6169;44.158;22.788;2023-05-21T10:00:38;10.57;;;4.93;;
12212;SDS011;6169;44.158;22.788;2023-05-21T10:05:40;7.43;;;4.80;;
12212;SDS011;6169;44.158;22.788;2023-05-21T10:10:44;6.20;;;4.75;;
12212;SDS011;6169;44.158;22.788;2023-05-21T10:15:52;6.95;;;4.18;;
12212;SDS011;6169;44.158;22.788;2023-05-21T10:21:00;6.57;;;4.10;;
12212;SDS011;6169;44.158;22.788;2023-05-21T10:26:03;10.07;;;4.95;;
12212;SDS011;6169;44.158;22.788;2023-05-21T10:31:09;7.47;;;4.18;;
12212;SDS011;6169;44.158;22.788;2023-05-21T10:36:12;7.40;;;4.63;;
12212;SDS011;6169;44.158;22.788;2023-05-21T10:41:17;6.55;;;4.45;;
12212;SDS011;6169;44.158;22.788;2023-05-21T10:46:31;10.02;;;4.60;;
12212;SDS011;6169;44.158;22.788;2023-05-21T10:51:58;9.27;;;5.18;;
12212;SDS011;6169;44.158;22.788;2023-05-21T10:57:08;5.60;;;4.45;;
12212;SDS011;6169;44.158;22.788;2023-05-21T11:02:25;5.80;;;3.95;;
12212;SDS011;6169;44.158;22.788;2023-05-21T11:13:06;6.22;;;4.57;;
12212;SDS011;6169;44.158;22.788;2023-05-21T11:18:10;8.63;;;4.57;;
12212;SDS011;6169;44.158;22.788;2023-05-21T11:23:15;7.38;;;4.00;;
12212;SDS011;6169;44.158;22.788;2023-05-21T11:28:24;7.43;;;4.15;;
12212;SDS011;6169;44.158;22.788;2023-05-21T11:33:35;6.25;;;3.97;;
12212;SDS011;6169;44.158;22.788;2023-05-21T11:38:37;7.15;;;3.55;;
12212;SDS011;6169;44.158;22.788;2023-05-21T11:43:39;9.32;;;4.13;;
12212;SDS011;6169;44.158;22.788;2023-05-21T11:48:43;9.07;;;5.10;;
12212;SDS011;6169;44.158;22.788;2023-05-21T11:53:45;5.88;;;4.07;;
12212;SDS011;6169;44.158;22.788;2023-05-21T11:58:48;10.80;;;4.20;;
12212;SDS011;6169;44.158;22.788;2023-05-21T12:03:55;9.68;;;4.70;;
12212;SDS011;6169;44.158;22.788;2023-05-21T12:08:57;6.97;;;5.05;;
12212;SDS011;6169;44.158;22.788;2023-05-21T12:14:00;7.63;;;4.70;;
12212;SDS011;6169;44.158;22.788;2023-05-21T12:19:03;8.07;;;4.05;;
12212;SDS011;6169;44.158;22.788;2023-05-21T12:24:06;6.20;;;4.30;;
12212;SDS011;6169;44.158;22.788;2023-05-21T12:29:08;15.77;;;11.32;;
12212;SDS011;6169;44.158;22.788;2023-05-21T12:34:12;12.18;;;6.20;;
12212;SDS011;6169;44.158;22.788;2023-05-21T12:39:14;7.10;;;4.07;;
12212;SDS011;6169;44.158;22.788;2023-05-21T12:44:17;6.88;;;3.92;;
12212;SDS011;6169;44.158;22.788;2023-05-21T12:49:37;8.20;;;4.68;;
12212;SDS011;6169;44.158;22.788;2023-05-21T12:54:42;10.63;;;4.55;;
12212;SDS011;6169;44.158;22.788;2023-05-21T12:59:46;5.55;;;4.47;;
12212;SDS011;6169;44.158;22.788;2023-05-21T13:04:55;6.65;;;4.20;;
12212;SDS011;6169;44.158;22.788;2023-05-21T13:09:58;7.00;;;4.18;;
12212;SDS011;6169;44.158;22.788;2023-05-21T13:15:02;14.43;;;4.95;;
12212;SDS011;6169;44.158;22.788;2023-05-21T13:20:09;5.82;;;3.97;;
12212;SDS011;6169;44.158;22.788;2023-05-21T13:25:14;8.82;;;6.88;;
12212;SDS011;6169;44.158;22.788;2023-05-21T13:30:19;7.28;;;3.85;;
12212;SDS011;6169;44.158;22.788;2023-05-21T13:35:23;13.45;;;5.18;;
12212;SDS011;6169;44.158;22.788;2023-05-21T13:40:26;10.55;;;3.60;;
12212;SDS011;6169;44.158;22.788;2023-05-21T13:45:28;6.15;;;2.90;;
12212;SDS011;6169;44.158;22.788;2023-05-21T13:50:31;8.77;;;4.40;;
12212;SDS011;6169;44.158;22.788;2023-05-21T13:55:34;11.30;;;6.32;;
12212;SDS011;6169;44.158;22.788;2023-05-21T14:00:36;16.02;;;10.70;;
12212;SDS011;6169;44.158;22.788;2023-05-21T14:05:41;9.55;;;6.32;;
12212;SDS011;6169;44.158;22.788;2023-05-21T14:10:44;9.93;;;6.13;;
12212;SDS011;6169;44.158;22.788;2023-05-21T14:15:46;14.13;;;6.18;;
12212;SDS011;6169;44.158;22.788;2023-05-21T14:20:50;9.18;;;4.03;;
12212;SDS011;6169;44.158;22.788;2023-05-21T14:25:52;15.18;;;10.23;;
12212;SDS011;6169;44.158;22.788;2023-05-21T14:30:54;9.52;;;4.63;;
12212;SDS011;6169;44.158;22.788;2023-05-21T14:35:58;5.43;;;4.13;;
12212;SDS011;6169;44.158;22.788;2023-05-21T14:41:00;4.80;;;3.45;;
12212;SDS011;6169;44.158;22.788;2023-05-21T14:46:02;6.53;;;3.90;;
12212;SDS011;6169;44.158;22.788;2023-05-21T14:51:06;8.02;;;5.25;;
12212;SDS011;6169;44.158;22.788;2023-05-21T14:56:09;7.95;;;5.28;;
12212;SDS011;6169;44.158;22.788;2023-05-21T15:01:11;6.95;;;3.20;;
12212;SDS011;6169;44.158;22.788;2023-05-21T15:06:14;7.78;;;3.78;;
12212;SDS011;6169;44.158;22.788;2023-05-21T15:11:17;5.30;;;3.72;;
12212;SDS011;6169;44.158;22.788;2023-05-21T15:16:19;6.25;;;2.95;;
12212;SDS011;6169;44.158;22.788;2023-05-21T15:21:23;12.52;;;6.50;;
12212;SDS011;6169;44.158;22.788;2023-05-21T15:26:25;6.32;;;4.50;;
12212;SDS011;6169;44.158;22.788;2023-05-21T15:31:27;7.18;;;4.07;;
12212;SDS011;6169;44.158;22.788;2023-05-21T15:36:31;6.80;;;3.80;;
12212;SDS011;6169;44.158;22.788;2023-05-21T15:41:34;6.25;;;3.63;;
12212;SDS011;6169;44.158;22.788;2023-05-21T15:46:37;6.80;;;4.22;;
12212;SDS011;6169;44.158;22.788;2023-05-21T15:51:41;5.43;;;4.18;;
12212;SDS011;6169;44.158;22.788;2023-05-21T15:56:43;6.13;;;5.18;;
12212;SDS011;6169;44.158;22.788;2023-05-21T16:01:46;5.25;;;3.97;;
12212;SDS011;6169;44.158;22.788;2023-05-21T16:06:49;7.88;;;4.82;;
12212;SDS011;6169;44.158;22.788;2023-05-21T16:11:52;7.20;;;4.63;;
12212;SDS011;6169;44.158;22.788;2023-05-21T16:16:54;5.85;;;4.97;;
12212;SDS011;6169;44.158;22.788;2023-05-21T16:21:58;9.88;;;4.70;;
12212;SDS011;6169;44.158;22.788;2023-05-21T16:27:01;4.65;;;4.22;;
12212;SDS011;6169;44.158;22.788;2023-05-21T16:32:04;6.18;;;4.68;;
12212;SDS011;6169;44.158;22.788;2023-05-21T16:37:08;6.45;;;4.78;;
12212;SDS011;6169;44.158;22.788;2023-05-21T16:42:10;6.53;;;4.43;;
12212;SDS011;6169;44.158;22.788;2023-05-21T16:47:12;7.35;;;4.20;;
12212;SDS011;6169;44.158;22.788;2023-05-21T16:52:16;7.03;;;4.32;;
12212;SDS011;6169;44.158;22.788;2023-05-21T16:57:18;8.50;;;4.03;;
12212;SDS011;6169;44.158;22.788;2023-05-21T17:02:20;6.82;;;4.13;;
12212;SDS011;6169;44.158;22.788;2023-05-21T17:07:25;5.38;;;3.47;;
12212;SDS011;6169;44.158;22.788;2023-05-21T17:12:27;5.45;;;3.42;;
12212;SDS011;6169;44.158;22.788;2023-05-21T17:17:29;4.60;;;4.10;;
12212;SDS011;6169;44.158;22.788;2023-05-21T17:22:33;5.93;;;4.15;;
12212;SDS011;6169;44.158;22.788;2023-05-21T17:27:35;4.80;;;4.25;;
12212;SDS011;6169;44.158;22.788;2023-05-21T17:32:38;5.43;;;3.65;;
12212;SDS011;6169;44.158;22.788;2023-05-21T17:37:41;5.43;;;4.20;;
12212;SDS011;6169;44.158;22.788;2023-05-21T17:42:44;6.68;;;4.32;;
12212;SDS011;6169;44.158;22.788;2023-05-21T17:47:46;5.95;;;4.25;;
12212;SDS011;6169;44.158;22.788;2023-05-21T17:52:50;4.40;;;3.92;;
12212;SDS011;6169;44.158;22.788;2023-05-21T17:57:52;8.80;;;4.00;;
12212;SDS011;6169;44.158;22.788;2023-05-21T18:02:54;4.60;;;3.67;;
12212;SDS011;6169;44.158;22.788;2023-05-21T18:07:59;4.57;;;3.83;;
12212;SDS011;6169;44.158;22.788;2023-05-21T18:13:03;5.57;;;4.43;;
12212;SDS011;6169;44.158;22.788;2023-05-21T18:18:05;6.63;;;4.15;;
12212;SDS011;6169;44.158;22.788;2023-05-21T18:23:09;4.82;;;4.32;;
12212;SDS011;6169;44.158;22.788;2023-05-21T18:28:11;4.88;;;4.38;;
12212;SDS011;6169;44.158;22.788;2023-05-21T18:33:14;6.97;;;4.25;;
12212;SDS011;6169;44.158;22.788;2023-05-21T18:38:18;3.75;;;3.30;;
12212;SDS011;6169;44.158;22.788;2023-05-21T18:43:20;5.68;;;4.60;;
12212;SDS011;6169;44.158;22.788;2023-05-21T18:48:23;6.95;;;3.47;;
12212;SDS011;6169;44.158;22.788;2023-05-21T18:53:26;6.68;;;4.40;;
12212;SDS011;6169;44.158;22.788;2023-05-21T18:58:29;5.07;;;3.60;;
12212;SDS011;6169;44.158;22.788;2023-05-21T19:03:32;9.98;;;4.63;;
12212;SDS011;6169;44.158;22.788;2023-05-21T19:08:36;7.10;;;4.10;;
12212;SDS011;6169;44.158;22.788;2023-05-21T19:13:39;9.90;;;3.92;;
12212;SDS011;6169;44.158;22.788;2023-05-21T19:18:41;10.57;;;4.20;;
12212;SDS011;6169;44.158;22.788;2023-05-21T19:23:45;4.53;;;3.85;;
12212;SDS011;6169;44.158;22.788;2023-05-21T19:28:48;9.07;;;3.70;;
12212;SDS011;6169;44.158;22.788;2023-05-21T19:33:52;7.38;;;4.50;;
12212;SDS011;6169;44.158;22.788;2023-05-21T19:38:55;7.38;;;3.72;;
12212;SDS011;6169;44.158;22.788;2023-05-21T19:43:59;6.40;;;4.22;;
12212;SDS011;6169;44.158;22.788;2023-05-21T19:49:01;6.00;;;5.03;;
12212;SDS011;6169;44.158;22.788;2023-05-21T19:54:05;5.15;;;4.13;;
12212;SDS011;6169;44.158;22.788;2023-05-21T19:59:07;6.88;;;5.85;;
12212;SDS011;6169;44.158;22.788;2023-05-21T20:04:09;5.22;;;4.15;;
12212;SDS011;6169;44.158;22.788;2023-05-21T20:09:14;8.05;;;4.43;;
12212;SDS011;6169;44.158;22.788;2023-05-21T20:14:17;5.57;;;4.70;;
12212;SDS011;6169;44.158;22.788;2023-05-21T20:19:19;10.20;;;4.32;;
12212;SDS011;6169;44.158;22.788;2023-05-21T20:24:24;6.05;;;4.25;;
12212;SDS011;6169;44.158;22.788;2023-05-21T20:29:26;6.40;;;4.13;;
12212;SDS011;6169;44.158;22.788;2023-05-21T20:34:28;6.18;;;4.00;;
12212;SDS011;6169;44.158;22.788;2023-05-21T20:39:32;8.48;;;4.63;;
12212;SDS011;6169;44.158;22.788;2023-05-21T20:44:36;6.80;;;4.22;;
12212;SDS011;6169;44.158;22.788;2023-05-21T20:49:38;6.72;;;4.22;;
12212;SDS011;6169;44.158;22.788;2023-05-21T20:54:42;8.15;;;4.57;;
12212;SDS011;6169;44.158;22.788;2023-05-21T20:59:45;9.23;;;4.40;;
12212;SDS011;6169;44.158;22.788;2023-05-21T21:04:48;11.00;;;6.13;;
12212;SDS011;6169;44.158;22.788;2023-05-21T21:09:52;6.93;;;5.38;;
12212;SDS011;6169;44.158;22.788;2023-05-21T21:14:54;10.25;;;5.30;;
12212;SDS011;6169;44.158;22.788;2023-05-21T21:19:57;11.32;;;5.00;;
12212;SDS011;6169;44.158;22.788;2023-05-21T21:25:00;11.95;;;5.18;;
12212;SDS011;6169;44.158;22.788;2023-05-21T21:30:03;8.63;;;5.95;;
12212;SDS011;6169;44.158;22.788;2023-05-21T21:35:06;5.63;;;5.05;;
12212;SDS011;6169;44.158;22.788;2023-05-21T21:40:12;11.60;;;6.05;;
12212;SDS011;6169;44.158;22.788;2023-05-21T21:45:14;12.00;;;5.85;;
12212;SDS011;6169;44.158;22.788;2023-05-21T21:50:17;10.10;;;5.80;;
12212;SDS011;6169;44.158;22.788;2023-05-21T21:55:20;6.15;;;4.30;;
12212;SDS011;6169;44.158;22.788;2023-05-21T22:00:23;7.72;;;5.70;;
12212;SDS011;6169;44.158;22.788;2023-05-21T22:05:25;8.80;;;5.20;;
12212;SDS011;6169;44.158;22.788;2023-05-21T22:10:31;5.55;;;4.80;;
12212;SDS011;6169;44.158;22.788;2023-05-21T22:15:37;11.50;;;6.25;;
12212;SDS011;6169;44.158;22.788;2023-05-21T22:20:39;8.60;;;5.75;;
12212;SDS011;6169;44.158;22.788;2023-05-21T22:25:44;11.95;;;5.35;;
12212;SDS011;6169;44.158;22.788;2023-05-21T22:30:46;9.65;;;5.50;;
12212;SDS011;6169;44.158;22.788;2023-05-21T22:35:49;7.88;;;5.32;;
12212;SDS011;6169;44.158;22.788;2023-05-21T22:40:52;8.23;;;5.80;;
12212;SDS011;6169;44.158;22.788;2023-05-21T22:45:55;12.68;;;6.25;;
12212;SDS011;6169;44.158;22.788;2023-05-21T22:50:57;10.40;;;5.80;;
12212;SDS011;6169;44.158;22.788;2023-05-21T22:56:02;16.60;;;6.85;;
12212;SDS011;6169;44.158;22.788;2023-05-21T23:01:04;7.13;;;5.90;;
12212;SDS011;6169;44.158;22.788;2023-05-21T23:06:07;9.63;;;5.00;;
12212;SDS011;6169;44.158;22.788;2023-05-21T23:11:10;14.48;;;5.82;;
12212;SDS011;6169;44.158;22.788;2023-05-21T23:16:13;7.72;;;5.93;;
12212;SDS011;6169;44.158;22.788;2023-05-21T23:21:16;19.67;;;6.28;;
12212;SDS011;6169;44.158;22.788;2023-05-21T23:26:20;7.22;;;6.13;;
12212;SDS011;6169;44.158;22.788;2023-05-21T23:31:22;9.77;;;6.32;;
12212;SDS011;6169;44.158;22.788;2023-05-21T23:36:24;8.73;;;5.15;;
12212;SDS011;6169;44.158;22.788;2023-05-21T23:41:28;16.40;;;6.70;;
12212;SDS011;6169;44.158;22.788;2023-05-21T23:46:30;13.10;;;5.95;;
12212;SDS011;6169;44.158;22.788;2023-05-21T23:51:32;10.68;;;6.32;;
12212;SDS011;6169;44.158;22.788;2023-05-21T23:56:36;12.70;;;5.97;;
